Time;durP1;ratioP1;P1;durP2;ratioP2;P2;SDS_P1;SDS_P2;PMS_P1;PMS_P2;Temp;Humidity;BMP_temperature;BMP_pressure;BME280_temperature;BME280_humidity;BME280_pressure;Samples;Min_cycle;Max_cycle;Signal;HPM_P1;HPM_P2
2022/01/07 01:47:52;;;;;;;0.10;0.10;;;-1.00;99.90;230.40;228845.00;;;;5124979;27;20620;-74
2022/01/07 01:50:21;;;;;;;0.10;0.10;;;-1.10;99.90;230.40;228845.00;;;;5088527;28;20659;-74
2022/01/07 01:52:53;;;;;;;0.10;0.10;;;-1.10;99.90;230.40;228845.00;;;;5112626;23;20232;-75
2022/01/07 01:55:25;;;;;;;0.20;0.20;;;-1.00;99.90;230.40;228845.00;;;;5085991;28;20210;-75
2022/01/07 01:57:54;;;;;;;0.20;0.20;;;-1.00;99.90;230.40;228845.00;;;;5088243;28;20196;-75
2022/01/07 02:00:25;;;;;;;0.20;0.20;;;-1.00;99.90;230.40;228845.00;;;;5086920;28;20201;-75
2022/01/07 02:02:54;;;;;;;0.20;0.20;;;-1.00;99.90;230.40;228845.00;;;;5106722;28;20239;-74
2022/01/07 02:05:23;;;;;;;0.20;0.20;;;-1.00;99.90;230.40;228845.00;;;;5108621;28;20196;-74
2022/01/07 02:07:51;;;;;;;0.17;0.17;;;-1.00;99.90;230.40;228845.00;;;;5102810;28;20267;-77
2022/01/07 02:10:20;;;;;;;0.20;0.20;;;-1.00;99.90;230.40;228845.00;;;;5106534;28;20196;-73
2022/01/07 02:12:49;;;;;;;0.20;0.20;;;-0.90;99.90;230.40;228845.00;;;;5105547;28;20251;-74
2022/01/07 02:15:18;;;;;;;0.10;0.10;;;-0.90;99.90;230.40;228845.00;;;;5106779;28;20197;-73
2022/01/07 02:17:49;;;;;;;0.13;0.13;;;-1.00;99.90;230.40;228845.00;;;;5105763;28;20662;-75
2022/01/07 02:20:25;;;;;;;0.20;0.20;;;-1.00;99.90;230.40;228845.00;;;;5107900;28;20264;-74
2022/01/07 02:22:54;;;;;;;0.20;0.20;;;-1.00;99.90;230.40;228845.00;;;;5107758;28;20285;-75
2022/01/07 02:25:22;;;;;;;0.20;0.20;;;-1.00;99.90;230.40;228845.00;;;;5090426;28;20864;-74
2022/01/07 02:27:50;;;;;;;0.20;0.20;;;-1.10;99.90;230.40;228845.00;;;;5089812;28;20204;-74
2022/01/07 02:30:22;;;;;;;0.20;0.20;;;-1.00;99.90;230.40;228845.00;;;;5108665;28;20206;-75
2022/01/07 02:32:50;;;;;;;0.20;0.20;;;-1.10;99.90;230.40;228845.00;;;;5106534;28;20216;-74
2022/01/07 02:35:23;;;;;;;0.20;0.20;;;-1.10;99.90;230.40;228845.00;;;;5107951;28;20196;-76
2022/01/07 02:37:51;;;;;;;0.20;0.20;;;-1.00;99.90;230.40;228845.00;;;;5107388;28;20215;-74
2022/01/07 02:40:19;;;;;;;0.20;0.20;;;-0.90;99.90;230.40;228845.00;;;;5107497;28;20197;-74
2022/01/07 02:42:47;;;;;;;0.20;0.20;;;-1.00;99.90;230.40;228845.00;;;;5107814;28;20259;-74
2022/01/07 02:45:15;;;;;;;0.20;0.20;;;-1.00;99.90;230.40;228845.00;;;;5108059;28;20598;-75
2022/01/07 02:47:52;;;;;;;0.20;0.20;;;-1.00;99.90;230.40;228845.00;;;;5080307;28;20210;-74
2022/01/07 02:50:25;;;;;;;0.20;0.20;;;-1.10;99.90;230.40;228845.00;;;;5083501;28;20563;-74
2022/01/07 02:52:54;;;;;;;0.20;0.20;;;-1.10;99.90;230.40;228845.00;;;;5081581;28;20229;-74
2022/01/07 02:55:24;;;;;;;0.15;0.15;;;-1.00;99.90;230.40;228845.00;;;;5078364;28;20206;-74
2022/01/07 02:57:53;;;;;;;0.20;0.20;;;-1.00;99.90;230.40;228845.00;;;;5074363;28;20217;-74
2022/01/07 03:00:23;;;;;;;0.20;0.20;;;-1.00;99.90;230.40;228845.00;;;;5085393;28;20254;-73
2022/01/07 03:02:53;;;;;;;0.20;0.20;;;-1.00;99.90;230.40;228845.00;;;;5093509;28;20231;-75
2022/01/07 03:05:23;;;;;;;0.20;0.20;;;-1.10;99.90;230.40;228845.00;;;;5091720;28;20193;-75
2022/01/07 03:07:51;;;;;;;0.20;0.20;;;-1.10;99.90;230.40;228845.00;;;;5092977;28;20201;-75
2022/01/07 03:10:23;;;;;;;0.20;0.20;;;-1.20;99.90;230.40;228845.00;;;;5093699;28;20196;-76
2022/01/07 03:12:51;;;;;;;0.20;0.20;;;-1.20;99.90;230.40;228845.00;;;;5093680;28;20589;-74
2022/01/07 03:15:19;;;;;;;0.20;0.20;;;-1.20;99.90;230.40;228845.00;;;;5093512;28;20185;-74
2022/01/07 03:17:47;;;;;;;0.20;0.20;;;-1.20;99.90;230.40;228845.00;;;;5093214;28;20695;-75
2022/01/07 03:20:18;;;;;;;0.20;0.20;;;-1.20;99.90;230.40;228845.00;;;;5085272;28;20197;-75
2022/01/07 03:22:49;;;;;;;0.20;0.20;;;-1.20;99.90;230.40;228845.00;;;;5090542;28;20220;-75
2022/01/07 03:25:19;;;;;;;0.20;0.20;;;-1.20;99.90;230.40;228845.00;;;;5090258;28;20262;-76
2022/01/07 03:27:47;;;;;;;0.20;0.20;;;-1.20;99.90;230.40;228845.00;;;;5088184;28;20721;-75
2022/01/07 03:30:18;;;;;;;0.20;0.20;;;-1.20;99.90;230.40;228845.00;;;;5075352;28;20192;-74
2022/01/07 03:32:47;;;;;;;0.20;0.20;;;-1.10;99.90;230.40;228845.00;;;;5080990;28;20267;-75
2022/01/07 03:35:17;;;;;;;0.20;0.20;;;-1.20;99.90;230.40;228845.00;;;;5089823;28;20660;-75
2022/01/07 03:37:48;;;;;;;0.20;0.20;;;-1.20;99.90;230.40;228845.00;;;;5092471;28;20859;-75
2022/01/07 03:40:19;;;;;;;0.20;0.20;;;-1.20;99.90;230.40;228845.00;;;;5092880;28;20197;-76
2022/01/07 03:42:47;;;;;;;0.20;0.20;;;-1.20;99.90;230.40;228845.00;;;;5068435;28;20218;-75
2022/01/07 03:45:17;;;;;;;0.20;0.20;;;-1.20;99.90;230.40;228845.00;;;;5072721;28;20583;-75
2022/01/07 03:47:46;;;;;;;0.20;0.20;;;-1.20;99.90;230.40;228845.00;;;;5072440;28;20202;-75
2022/01/07 03:50:18;;;;;;;0.20;0.20;;;-1.20;99.90;230.40;228845.00;;;;5071370;28;20194;-74
2022/01/07 03:52:49;;;;;;;0.20;0.20;;;-1.30;99.90;230.40;228845.00;;;;5090764;28;20232;-74
2022/01/07 03:55:20;;;;;;;0.20;0.20;;;-1.20;99.90;230.40;228845.00;;;;5080515;28;20202;-76
2022/01/07 03:57:48;;;;;;;0.20;0.20;;;-1.30;99.90;230.40;228845.00;;;;5072164;28;20214;-77
2022/01/07 04:00:21;;;;;;;0.20;0.20;;;-1.30;99.90;230.40;228845.00;;;;5085196;28;20694;-76
2022/01/07 04:02:50;;;;;;;0.20;0.20;;;-1.30;99.90;230.40;228845.00;;;;5092298;28;20250;-75
2022/01/07 04:05:22;;;;;;;0.20;0.20;;;-1.30;99.90;230.40;228845.00;;;;5092593;28;20203;-74
2022/01/07 04:07:52;;;;;;;0.20;0.20;;;-1.30;99.90;230.40;228845.00;;;;5091131;28;20193;-75
2022/01/07 04:10:20;;;;;;;0.20;0.20;;;-1.30;99.90;230.40;228845.00;;;;5086460;28;20193;-74
2022/01/07 04:12:48;;;;;;;0.15;0.15;;;-1.30;99.90;230.40;228845.00;;;;5074375;28;20225;-75
2022/01/07 04:15:17;;;;;;;0.20;0.20;;;-1.30;99.90;230.40;228845.00;;;;5091324;28;20243;-75
2022/01/07 04:17:48;;;;;;;0.20;0.20;;;-1.20;99.90;230.40;228845.00;;;;5078617;28;20850;-74
2022/01/07 04:20:19;;;;;;;0.20;0.20;;;-1.10;99.90;230.40;228845.00;;;;5092428;28;20197;-74
2022/01/07 04:22:48;;;;;;;0.20;0.20;;;-1.10;99.90;230.40;228845.00;;;;5091717;28;20239;-76
2022/01/07 04:25:19;;;;;;;0.20;0.20;;;-1.20;99.90;230.40;228845.00;;;;5083520;28;20219;-73
2022/01/07 04:27:48;;;;;;;0.20;0.20;;;-1.20;99.90;230.40;228845.00;;;;5084726;28;20270;-74
2022/01/07 04:30:18;;;;;;;0.20;0.20;;;-1.20;99.90;230.40;228845.00;;;;5080756;28;20232;-73
2022/01/07 04:32:46;;;;;;;0.20;0.20;;;-1.20;99.90;230.40;228845.00;;;;5086228;28;20216;-75
2022/01/07 04:35:15;;;;;;;0.20;0.20;;;-1.20;99.90;230.40;228845.00;;;;5088009;28;20205;-74
2022/01/07 04:37:44;;;;;;;0.10;0.10;;;-1.20;99.90;230.40;228845.00;;;;5086874;28;20228;-73
2022/01/07 04:40:15;;;;;;;0.20;0.20;;;-1.20;99.90;230.40;228845.00;;;;5091750;28;20235;-75
2022/01/07 04:42:44;;;;;;;0.20;0.20;;;-1.20;99.90;230.40;228845.00;;;;5091526;28;20212;-74
2022/01/07 04:45:13;;;;;;;0.20;0.20;;;-1.10;99.90;230.40;228845.00;;;;5090797;28;20246;-74
2022/01/07 04:47:42;;;;;;;0.20;0.20;;;-1.10;99.90;230.40;228845.00;;;;5091505;28;20205;-75
2022/01/07 04:50:14;;;;;;;0.10;0.10;;;-1.00;99.90;230.40;228845.00;;;;5090618;28;20189;-77
2022/01/07 04:52:44;;;;;;;0.20;0.20;;;-0.90;99.90;230.40;228845.00;;;;5090420;28;20236;-77
2022/01/07 04:55:14;;;;;;;0.20;0.20;;;-0.90;99.90;230.40;228845.00;;;;5090671;28;20682;-74
2022/01/07 04:57:45;;;;;;;0.20;0.20;;;-0.80;99.90;230.40;228845.00;;;;5091275;28;20270;-75
2022/01/07 05:00:15;;;;;;;0.20;0.20;;;-0.80;99.90;230.40;228845.00;;;;5091145;28;20205;-74
2022/01/07 05:02:43;;;;;;;0.20;0.20;;;-0.70;99.90;230.40;228845.00;;;;5091668;28;20209;-74
2022/01/07 05:05:12;;;;;;;0.10;0.10;;;-0.70;99.90;230.40;228845.00;;;;5091788;28;20698;-73
2022/01/07 05:07:40;;;;;;;0.10;0.10;;;-0.50;99.90;230.40;228845.00;;;;5088116;28;20205;-74
2022/01/07 05:10:12;;;;;;;0.20;0.20;;;-0.50;99.90;230.40;228845.00;;;;5079873;28;20200;-73
2022/01/07 05:12:42;;;;;;;0.20;0.20;;;-0.60;99.90;230.40;228845.00;;;;5068448;28;20212;-74
2022/01/07 05:15:14;;;;;;;0.20;0.20;;;-0.70;99.90;230.40;228845.00;;;;5091165;28;20285;-74
2022/01/07 05:17:42;;;;;;;0.20;0.20;;;-0.70;99.90;230.40;228845.00;;;;5072531;28;20214;-74
2022/01/07 05:20:12;;;;;;;0.10;0.10;;;-0.80;99.90;230.40;228845.00;;;;5071217;28;20243;-75
2022/01/07 05:22:40;;;;;;;0.10;0.10;;;-0.80;99.90;230.40;228845.00;;;;5081824;28;20217;-75
2022/01/07 05:25:11;;;;;;;0.20;0.20;;;-0.80;99.90;230.40;228845.00;;;;5088441;28;20227;-74
2022/01/07 05:27:40;;;;;;;0.20;0.20;;;-0.90;99.90;230.40;228845.00;;;;5092689;28;20231;-75
2022/01/07 05:30:27;;;;;;;0.20;0.20;;;-0.90;99.90;230.40;228845.00;;;;5067487;28;20251;-75
2022/01/07 05:32:55;;;;;;;0.20;0.20;;;-1.00;99.90;230.40;228845.00;;;;5068539;28;20220;-75
2022/01/07 05:35:25;;;;;;;0.20;0.20;;;-0.90;99.90;230.40;228845.00;;;;5090762;28;20720;-75
2022/01/07 05:37:53;;;;;;;0.20;0.20;;;-0.90;99.90;230.40;228845.00;;;;5090675;28;20201;-75
2022/01/07 05:40:21;;;;;;;0.20;0.20;;;-0.80;99.90;230.40;228845.00;;;;5085341;28;20197;-75
2022/01/07 05:42:49;;;;;;;0.20;0.20;;;-0.80;99.90;230.40;228845.00;;;;5076499;28;20229;-74
2022/01/07 05:45:19;;;;;;;0.15;0.15;;;-0.70;99.90;230.40;228845.00;;;;5075346;28;20872;-75
2022/01/07 05:47:47;;;;;;;0.20;0.20;;;-0.70;99.90;230.40;228845.00;;;;5071278;28;20197;-74
2022/01/07 05:50:15;;;;;;;0.10;0.10;;;-0.70;99.90;230.40;228845.00;;;;5073977;28;20197;-74
2022/01/07 05:52:43;;;;;;;0.20;0.20;;;-0.70;99.90;230.40;228845.00;;;;5090855;28;20225;-74
2022/01/07 05:55:11;;;;;;;0.20;0.20;;;-0.70;99.90;230.40;228845.00;;;;5083352;28;20209;-73
2022/01/07 05:57:40;;;;;;;0.20;0.20;;;-0.70;99.90;230.40;228845.00;;;;5084167;28;20231;-75
2022/01/07 06:00:12;;;;;;;0.20;0.20;;;-0.70;99.90;230.40;228845.00;;;;5089034;28;20193;-72
2022/01/07 06:02:41;;;;;;;0.10;0.10;;;-0.70;99.90;230.40;228845.00;;;;5090719;28;20274;-73
2022/01/07 06:05:10;;;;;;;0.20;0.20;;;-0.70;99.90;230.40;228845.00;;;;5088496;28;20447;-76
2022/01/07 06:07:37;;;;;;;0.20;0.20;;;-0.70;99.90;230.40;228845.00;;;;5090564;28;20212;-77
2022/01/07 06:10:08;;;;;;;0.20;0.20;;;-0.70;99.90;230.40;228845.00;;;;5096069;28;20254;-76
2022/01/07 06:12:36;;;;;;;0.20;0.20;;;-0.70;99.90;230.40;228845.00;;;;5096395;28;20213;-76
2022/01/07 06:15:05;;;;;;;0.20;0.20;;;-0.70;99.90;230.40;228845.00;;;;5097078;28;20197;-76
2022/01/07 06:17:33;;;;;;;0.20;0.20;;;-0.70;99.90;230.40;228845.00;;;;5108371;28;20505;-76
2022/01/07 06:20:02;;;;;;;0.10;0.10;;;-0.70;99.90;230.40;228845.00;;;;5109187;28;20235;-78
2022/01/07 06:22:30;;;;;;;0.13;0.13;;;-0.60;99.90;230.40;228845.00;;;;5112952;28;20471;-77
2022/01/07 06:24:58;;;;;;;0.10;0.10;;;-0.60;99.90;230.40;228845.00;;;;5112435;28;20227;-76
2022/01/07 06:27:26;;;;;;;0.20;0.20;;;-0.60;99.90;230.40;228845.00;;;;5099688;28;20216;-77
2022/01/07 06:29:54;;;;;;;0.20;0.20;;;-0.60;99.90;230.40;228845.00;;;;5097351;28;20584;-77
2022/01/07 06:32:23;;;;;;;0.20;0.20;;;-0.70;99.90;230.40;228845.00;;;;5094246;28;20224;-77
2022/01/07 06:34:52;;;;;;;0.10;0.10;;;-0.60;99.90;230.40;228845.00;;;;5094403;28;20181;-76
2022/01/07 06:37:21;;;;;;;0.20;0.20;;;-0.60;99.90;230.40;228845.00;;;;5093747;28;20193;-76
2022/01/07 06:39:49;;;;;;;0.20;0.20;;;-0.60;99.90;230.40;228845.00;;;;5093637;28;20258;-74
2022/01/07 06:42:17;;;;;;;0.20;0.20;;;-0.60;99.90;230.40;228845.00;;;;5092427;28;20213;-75
2022/01/07 06:44:45;;;;;;;0.20;0.20;;;-0.50;99.90;230.40;228845.00;;;;5092028;28;20243;-74
2022/01/07 06:47:13;;;;;;;0.20;0.20;;;-0.50;99.90;230.40;228845.00;;;;5090547;28;20207;-74
2022/01/07 06:49:41;;;;;;;0.20;0.20;;;-0.50;99.90;230.40;228845.00;;;;5091961;28;20776;-75
2022/01/07 06:52:10;;;;;;;0.20;0.20;;;-0.50;99.90;230.40;228845.00;;;;5092095;28;20228;-76
2022/01/07 06:54:39;;;;;;;0.20;0.20;;;-0.50;99.90;230.40;228845.00;;;;5089339;28;20246;-77
2022/01/07 06:57:07;;;;;;;0.20;0.20;;;-0.50;99.90;230.40;228845.00;;;;5092203;28;20189;-77
2022/01/07 06:59:35;;;;;;;0.20;0.20;;;-0.50;99.90;230.40;228845.00;;;;5092357;28;20213;-76
2022/01/07 07:02:04;;;;;;;0.20;0.20;;;-0.50;99.90;230.40;228845.00;;;;5091035;28;20227;-74
2022/01/07 07:04:33;;;;;;;0.20;0.20;;;-0.40;99.90;230.40;228845.00;;;;5091867;28;20197;-76
2022/01/07 07:07:01;;;;;;;0.20;0.20;;;-0.40;99.90;230.40;228845.00;;;;5090633;28;20196;-76
2022/01/07 07:09:29;;;;;;;0.20;0.20;;;-0.40;99.90;230.40;228845.00;;;;5091954;28;20246;-76
2022/01/07 07:11:58;;;;;;;0.20;0.20;;;-0.40;99.90;230.40;228845.00;;;;5091744;28;20266;-76
2022/01/07 07:14:26;;;;;;;0.20;0.20;;;-0.30;99.90;230.40;228845.00;;;;5091632;28;20544;-76
2022/01/07 07:16:54;;;;;;;0.20;0.20;;;-0.30;99.90;230.40;228845.00;;;;5091099;28;20185;-76
2022/01/07 07:19:22;;;;;;;0.20;0.20;;;-0.20;99.90;230.40;228845.00;;;;5091889;28;20221;-76
2022/01/07 07:21:51;;;;;;;0.20;0.20;;;-0.20;99.90;230.40;228845.00;;;;5095331;28;20277;-77
2022/01/07 07:24:19;;;;;;;0.17;0.17;;;-0.20;99.90;230.40;228845.00;;;;5093758;28;20193;-77
2022/01/07 07:26:47;;;;;;;0.17;0.17;;;-0.10;99.90;230.40;228845.00;;;;5092098;28;20197;-74
2022/01/07 07:29:16;;;;;;;0.20;0.20;;;-0.10;99.90;230.40;228845.00;;;;5089586;28;20206;-76
2022/01/07 07:31:49;;;;;;;0.20;0.20;;;-0.10;99.90;230.40;228845.00;;;;5090611;28;20217;-76
2022/01/07 07:37:02;;;;;;;0.10;0.10;;;0.00;99.90;230.40;228845.00;;;;5080616;28;20209;-76
2022/01/07 07:39:30;;;;;;;0.20;0.20;;;-0.10;99.90;230.40;228845.00;;;;5090560;28;20278;-74
2022/01/07 07:41:58;;;;;;;0.20;0.20;;;0.00;99.90;230.40;228845.00;;;;5097758;28;20267;-74
2022/01/07 07:44:32;;;;;;;0.20;0.20;;;0.00;99.90;230.40;228845.00;;;;5073399;28;20192;-77
2022/01/07 07:47:00;;;;;;;0.20;0.20;;;-0.10;99.90;230.40;228845.00;;;;5092123;28;20663;-77
2022/01/07 07:49:29;;;;;;;0.20;0.20;;;-0.10;99.90;230.40;228845.00;;;;5091151;28;20197;-75
2022/01/07 07:51:57;;;;;;;0.20;0.20;;;-0.10;99.90;230.40;228845.00;;;;5121560;22;20240;-74
2022/01/07 07:54:25;;;;;;;0.13;0.13;;;0.00;99.90;230.40;228845.00;;;;5111592;28;20188;-72
2022/01/07 07:56:55;;;;;;;0.20;0.20;;;0.00;99.90;230.40;228845.00;;;;5093546;28;20245;-72
2022/01/07 07:59:23;;;;;;;0.20;0.20;;;0.00;99.90;230.40;228845.00;;;;5112189;28;20224;-73
2022/01/07 08:01:52;;;;;;;0.20;0.20;;;0.00;99.90;230.40;228845.00;;;;5112401;28;20204;-72
2022/01/07 08:04:21;;;;;;;0.20;0.20;;;0.00;99.90;230.40;228845.00;;;;5112103;28;20279;-72
2022/01/07 08:06:51;;;;;;;0.20;0.20;;;0.10;99.90;230.40;228845.00;;;;5111696;28;20766;-72
2022/01/07 08:09:19;;;;;;;0.20;0.20;;;0.10;99.90;230.40;228845.00;;;;5112141;28;20192;-72
2022/01/07 08:11:52;;;;;;;0.15;0.15;;;0.10;99.90;230.40;228845.00;;;;5111880;28;20211;-72
2022/01/07 08:17:10;;;;;;;0.20;0.20;;;0.20;99.90;230.40;228845.00;;;;5111502;28;20638;-72
2022/01/07 08:19:38;;;;;;;0.20;0.20;;;0.30;99.90;230.40;228845.00;;;;5111244;28;20741;-72
2022/01/07 08:22:08;;;;;;;0.20;0.20;;;0.30;99.90;230.40;228845.00;;;;5110924;28;20212;-72
2022/01/07 08:24:37;;;;;;;0.10;0.10;;;0.30;99.90;230.40;228845.00;;;;5111423;28;20192;-73
2022/01/07 08:27:05;;;;;;;0.20;0.20;;;0.40;99.90;230.40;228845.00;;;;5110494;28;20184;-72
2022/01/07 08:29:53;;;;;;;0.20;0.20;;;0.40;99.90;230.40;228845.00;;;;5112796;28;20291;-72
2022/01/07 08:35:08;;;;;;;0.10;0.10;;;0.40;99.90;230.40;228845.00;;;;5112195;28;21523;-72
2022/01/07 08:37:36;;;;;;;0.20;0.20;;;0.40;99.90;230.40;228845.00;;;;5112170;28;20208;-73
2022/01/07 08:40:06;;;;;;;0.17;0.17;;;0.50;99.90;230.40;228845.00;;;;5111375;28;20781;-73
2022/01/07 08:42:34;;;;;;;0.20;0.20;;;0.50;99.90;230.40;228845.00;;;;5109301;28;20212;-73
2022/01/07 08:45:02;;;;;;;0.20;0.20;;;0.60;99.90;230.40;228845.00;;;;5111437;28;20234;-73
2022/01/07 08:47:32;;;;;;;0.20;0.20;;;0.60;99.90;230.40;228845.00;;;;5112988;28;20222;-73
2022/01/07 08:50:00;;;;;;;0.20;0.20;;;0.70;99.90;230.40;228845.00;;;;5111374;28;20237;-73
2022/01/07 08:52:28;;;;;;;0.10;0.10;;;0.80;99.90;230.40;228845.00;;;;5111161;28;20228;-73
2022/01/07 08:54:56;;;;;;;0.15;0.15;;;0.80;99.90;230.40;228845.00;;;;5110763;28;20193;-73
2022/01/07 08:57:24;;;;;;;0.10;0.10;;;0.80;99.90;230.40;228845.00;;;;5109858;28;20196;-73
2022/01/07 08:59:52;;;;;;;0.20;0.20;;;0.90;99.90;230.40;228845.00;;;;5110118;28;20212;-73
2022/01/07 09:02:20;;;;;;;0.10;0.10;;;0.90;99.90;230.40;228845.00;;;;5111542;28;20220;-73
2022/01/07 09:04:50;;;;;;;0.10;0.10;;;0.90;99.90;230.40;228845.00;;;;5110584;28;20196;-73
2022/01/07 09:07:18;;;;;;;0.20;0.20;;;0.90;99.90;230.40;228845.00;;;;5110810;28;20200;-73
2022/01/07 09:09:46;;;;;;;0.20;0.20;;;0.90;99.90;230.40;228845.00;;;;5109636;28;20196;-73
2022/01/07 09:12:14;;;;;;;0.20;0.20;;;0.90;99.90;230.40;228845.00;;;;5110157;28;20269;-73
2022/01/07 09:14:42;;;;;;;0.20;0.20;;;0.90;99.90;230.40;228845.00;;;;5106506;28;20264;-74
2022/01/07 09:17:10;;;;;;;0.10;0.10;;;1.00;99.90;230.40;228845.00;;;;5108959;28;20199;-74
2022/01/07 09:19:39;;;;;;;0.10;0.10;;;1.00;99.90;230.40;228845.00;;;;5114527;28;21062;-73
2022/01/07 09:22:09;;;;;;;0.20;0.20;;;1.10;99.90;230.40;228845.00;;;;5111014;28;20601;-73
2022/01/07 09:24:37;;;;;;;0.20;0.20;;;1.10;99.90;230.40;228845.00;;;;5110272;28;20200;-73
2022/01/07 09:27:05;;;;;;;0.20;0.20;;;1.10;99.90;230.40;228845.00;;;;5108321;28;20196;-73
2022/01/07 09:29:33;;;;;;;0.10;0.10;;;1.10;99.90;230.40;228845.00;;;;5108441;28;20196;-74
2022/01/07 09:32:02;;;;;;;0.20;0.20;;;1.20;99.90;230.40;228845.00;;;;5109745;28;20204;-73
2022/01/07 09:34:30;;;;;;;0.20;0.20;;;1.30;99.90;230.40;228845.00;;;;5110113;28;20214;-73
2022/01/07 09:37:03;;;;;;;0.10;0.10;;;1.30;99.90;230.40;228845.00;;;;5110767;28;20196;-73
2022/01/07 09:39:33;;;;;;;0.20;0.20;;;1.30;99.90;230.40;228845.00;;;;5110662;28;20196;-73
2022/01/07 09:42:03;;;;;;;0.10;0.10;;;1.30;99.90;230.40;228845.00;;;;5113008;28;20573;-73
2022/01/07 09:44:31;;;;;;;0.17;0.17;;;1.30;99.90;230.40;228845.00;;;;5112434;28;20193;-73
2022/01/07 09:46:59;;;;;;;0.20;0.20;;;1.30;99.90;230.40;228845.00;;;;5111106;28;20709;-73
2022/01/07 09:49:33;;;;;;;0.20;0.20;;;1.30;99.90;230.40;228845.00;;;;5110032;28;20562;-73
2022/01/07 09:52:02;;;;;;;0.20;0.20;;;1.30;99.90;230.40;228845.00;;;;5109874;28;20254;-73
2022/01/07 09:54:30;;;;;;;0.20;0.20;;;1.30;99.90;230.40;228845.00;;;;5108554;28;20693;-73
2022/01/07 09:57:01;;;;;;;0.20;0.20;;;1.30;99.90;230.40;228845.00;;;;5109819;28;20384;-73
2022/01/07 09:59:29;;;;;;;0.10;0.10;;;1.30;99.90;230.40;228845.00;;;;5114524;28;20193;-74
2022/01/07 10:01:59;;;;;;;0.10;0.10;;;1.30;99.90;230.40;228845.00;;;;5114358;28;20219;-73
2022/01/07 10:04:30;;;;;;;0.20;0.20;;;1.30;99.90;230.40;228845.00;;;;5114257;28;20189;-73
2022/01/07 10:07:12;;;;;;;0.20;0.20;;;1.30;99.90;230.40;228845.00;;;;5114137;28;20188;-73
2022/01/07 10:09:41;;;;;;;0.20;0.20;;;1.30;99.90;230.40;228845.00;;;;5114046;28;20204;-73
2022/01/07 10:12:11;;;;;;;0.17;0.17;;;1.40;99.90;230.40;228845.00;;;;5113709;28;21066;-73
2022/01/07 10:14:38;;;;;;;0.20;0.20;;;1.40;99.90;230.40;228845.00;;;;5114249;28;20188;-73
2022/01/07 10:17:07;;;;;;;0.20;0.20;;;1.50;99.90;230.40;228845.00;;;;5112432;28;20192;-73
2022/01/07 10:19:38;;;;;;;0.20;0.20;;;1.60;99.90;230.40;228845.00;;;;5113872;28;20188;-73
2022/01/07 10:22:11;;;;;;;0.20;0.20;;;1.70;99.90;230.40;228845.00;;;;5114005;28;20212;-73
2022/01/07 10:24:56;;;;;;;0.10;0.10;;;1.70;99.90;230.40;228845.00;;;;5113578;28;20196;-73
2022/01/07 10:27:28;;;;;;;0.10;0.10;;;1.80;99.90;230.40;228845.00;;;;5113994;28;20566;-73
2022/01/07 10:29:56;;;;;;;0.10;0.10;;;1.80;99.90;230.40;228845.00;;;;5109685;28;20572;-73
2022/01/07 10:32:28;;;;;;;0.10;0.10;;;1.70;99.90;230.40;228845.00;;;;5113421;28;20212;-73
2022/01/07 10:35:13;;;;;;;0.10;0.10;;;1.70;99.90;230.40;228845.00;;;;5110557;28;20196;-73
2022/01/07 10:37:56;;;;;;;0.20;0.20;;;1.80;99.90;230.40;228845.00;;;;5113435;28;20253;-73
2022/01/07 10:40:30;;;;;;;0.10;0.10;;;1.80;99.90;230.40;228845.00;;;;5109563;28;20250;-73
2022/01/07 10:43:16;;;;;;;0.10;0.10;;;1.80;99.90;230.40;228845.00;;;;5113067;28;20212;-73
2022/01/07 10:45:47;;;;;;;0.17;0.17;;;1.80;99.90;230.40;228845.00;;;;5113218;28;20200;-73
2022/01/07 10:48:17;;;;;;;0.10;0.10;;;1.90;99.90;230.40;228845.00;;;;5113021;28;20727;-73
2022/01/07 10:50:48;;;;;;;0.10;0.10;;;1.90;99.90;230.40;228845.00;;;;5112936;28;20196;-73
2022/01/07 10:53:26;;;;;;;0.15;0.15;;;1.90;99.90;230.40;228845.00;;;;5112509;28;20216;-73
2022/01/07 10:56:08;;;;;;;0.20;0.20;;;1.90;99.90;230.40;228845.00;;;;5113061;28;20188;-73
2022/01/07 10:59:03;;;;;;;0.20;0.20;;;1.90;99.90;230.40;228845.00;;;;5110781;28;20201;-73
2022/01/07 11:01:41;;;;;;;0.10;0.10;;;2.00;99.90;230.40;228845.00;;;;5112541;28;20714;-73
2022/01/07 11:04:14;;;;;;;0.10;0.10;;;1.90;99.90;230.40;228845.00;;;;5113242;28;20193;-73
2022/01/07 11:06:43;;;;;;;0.10;0.10;;;2.00;99.90;230.40;228845.00;;;;5112149;28;20724;-73
2022/01/07 11:09:14;;;;;;;0.20;0.20;;;2.00;99.90;230.40;228845.00;;;;5111749;28;20663;-74
2022/01/07 11:11:50;;;;;;;0.20;0.20;;;2.00;99.90;230.40;228845.00;;;;5113190;28;20215;-73
2022/01/07 11:14:24;;;;;;;0.10;0.10;;;2.00;99.90;230.40;228845.00;;;;5112700;28;20253;-73
2022/01/07 11:16:54;;;;;;;0.20;0.20;;;1.90;99.90;230.40;228845.00;;;;5113000;28;20192;-73
2022/01/07 11:19:27;;;;;;;0.13;0.13;;;1.90;99.90;230.40;228845.00;;;;5135379;27;20568;-73
2022/01/07 11:21:56;;;;;;;0.10;0.10;;;1.90;99.90;230.40;228845.00;;;;5120584;28;20485;-73
2022/01/07 11:24:41;;;;;;;0.10;0.10;;;1.90;99.90;230.40;228845.00;;;;5117396;28;20203;-73
2022/01/07 11:27:13;;;;;;;0.20;0.20;;;1.90;99.90;230.40;228845.00;;;;5110946;28;20687;-74
2022/01/07 11:29:54;;;;;;;0.20;0.20;;;1.90;99.90;230.40;228845.00;;;;5111170;28;20205;-73
2022/01/07 11:32:37;;;;;;;0.10;0.10;;;1.80;99.90;230.40;228845.00;;;;5111868;28;20227;-73
2022/01/07 11:35:46;;;;;;;0.10;0.10;;;1.80;99.90;230.40;228845.00;;;;5110277;28;20192;-73
2022/01/07 11:38:40;;;;;;;0.20;0.20;;;1.80;99.90;230.40;228845.00;;;;5110232;28;20269;-73
2022/01/07 11:41:14;;;;;;;0.10;0.10;;;1.90;99.90;230.40;228845.00;;;;5112388;28;20709;-73
2022/01/07 11:43:46;;;;;;;0.17;0.17;;;1.80;99.90;230.40;228845.00;;;;5112545;28;20722;-73
2022/01/07 11:46:31;;;;;;;0.20;0.20;;;1.80;99.90;230.40;228845.00;;;;5108150;28;20616;-73
2022/01/07 11:49:03;;;;;;;0.15;0.15;;;1.90;99.90;230.40;228845.00;;;;5110808;28;20192;-73
2022/01/07 11:51:43;;;;;;;0.10;0.10;;;1.90;99.90;230.40;228845.00;;;;5111737;28;20631;-73
2022/01/07 11:54:13;;;;;;;0.10;0.10;;;1.90;99.90;230.40;228845.00;;;;5112510;28;20646;-73
2022/01/07 11:56:43;;;;;;;0.10;0.10;;;2.00;99.90;230.40;228845.00;;;;5111177;28;20201;-73
2022/01/07 11:59:19;;;;;;;0.10;0.10;;;2.00;99.90;230.40;228845.00;;;;5110280;28;20666;-73
2022/01/07 12:02:04;;;;;;;0.13;0.13;;;2.00;99.90;230.40;228845.00;;;;5111558;28;20743;-73
2022/01/07 12:04:35;;;;;;;0.17;0.17;;;2.00;99.90;230.40;228845.00;;;;5112501;28;20701;-73
2022/01/07 12:07:07;;;;;;;0.10;0.10;;;2.00;99.90;230.40;228845.00;;;;5111544;28;20196;-73
2022/01/07 12:09:41;;;;;;;0.10;0.10;;;2.00;99.90;230.40;228845.00;;;;5111771;28;20249;-73
2022/01/07 12:12:13;;;;;;;0.20;0.20;;;2.00;99.90;230.40;228845.00;;;;5111542;28;20276;-73
2022/01/07 12:14:49;;;;;;;0.10;0.10;;;1.90;99.90;230.40;228845.00;;;;5110209;28;20291;-73
2022/01/07 12:17:21;;;;;;;0.10;0.10;;;1.90;99.90;230.40;228845.00;;;;5111824;28;20207;-73
2022/01/07 12:20:50;;;;;;;0.20;0.20;;;1.90;99.90;230.40;228845.00;;;;5112046;28;20671;-73
2022/01/07 12:23:22;;;;;;;0.10;0.10;;;1.80;99.90;230.40;228845.00;;;;5111624;28;20227;-74
2022/01/07 12:25:53;;;;;;;0.10;0.10;;;1.80;99.90;230.40;228845.00;;;;5112123;28;20200;-74
2022/01/07 12:28:22;;;;;;;0.10;0.10;;;1.80;99.90;230.40;228845.00;;;;5119842;28;20188;-74
2022/01/07 12:30:52;;;;;;;0.20;0.20;;;1.70;99.90;230.40;228845.00;;;;5122072;28;20200;-73
2022/01/07 12:33:21;;;;;;;0.10;0.10;;;1.70;99.90;230.40;228845.00;;;;5120248;28;20212;-74
2022/01/07 12:35:49;;;;;;;0.20;0.20;;;1.70;99.90;230.40;228845.00;;;;5121394;28;20188;-72
2022/01/07 12:38:21;;;;;;;0.20;0.20;;;1.70;99.90;230.40;228845.00;;;;5120655;28;20200;-72
2022/01/07 12:40:56;;;;;;;0.10;0.10;;;1.70;99.90;230.40;228845.00;;;;5121700;28;20226;-72
2022/01/07 12:43:33;;;;;;;0.17;0.17;;;1.70;99.90;230.40;228845.00;;;;5122807;28;20208;-72
2022/01/07 12:46:04;;;;;;;0.20;0.20;;;1.70;99.90;230.40;228845.00;;;;5120077;28;20192;-75
2022/01/07 12:48:41;;;;;;;0.10;0.10;;;1.70;99.90;230.40;228845.00;;;;5111882;28;20671;-73
2022/01/07 12:51:09;;;;;;;0.17;0.17;;;1.70;99.90;230.40;228845.00;;;;5112068;28;20188;-73
2022/01/07 12:53:54;;;;;;;0.20;0.20;;;1.70;99.90;230.40;228845.00;;;;5109188;28;20220;-72